sensor_id;sensor_type;location;lat;lon;timestamp;P1;durP1;ratioP1;P2;durP2;ratioP2
23242;SDS011;11790;49.578;11.214;2022-11-20T00:00:13;40.90;;;20.55;;
23242;SDS011;11790;49.578;11.214;2022-11-20T00:05:13;41.50;;;20.58;;
23242;SDS011;11790;49.578;11.214;2022-11-20T00:10:13;42.33;;;21.17;;
23242;SDS011;11790;49.578;11.214;2022-11-20T00:15:14;36.88;;;19.08;;
23242;SDS011;11790;49.578;11.214;2022-11-20T00:20:14;41.00;;;19.95;;
23242;SDS011;11790;49.578;11.214;2022-11-20T00:25:14;42.47;;;19.20;;
23242;SDS011;11790;49.578;11.214;2022-11-20T00:30:15;43.35;;;20.25;;
23242;SDS011;11790;49.578;11.214;2022-11-20T00:35:15;44.77;;;20.37;;
23242;SDS011;11790;49.578;11.214;2022-11-20T00:40:15;39.83;;;19.53;;
23242;SDS011;11790;49.578;11.214;2022-11-20T00:45:16;42.60;;;20.75;;
23242;SDS011;11790;49.578;11.214;2022-11-20T00:50:16;42.35;;;20.70;;
23242;SDS011;11790;49.578;11.214;2022-11-20T00:55:16;39.22;;;19.42;;
23242;SDS011;11790;49.578;11.214;2022-11-20T01:00:16;38.75;;;19.50;;
23242;SDS011;11790;49.578;11.214;2022-11-20T01:05:17;40.13;;;20.58;;
23242;SDS011;11790;49.578;11.214;2022-11-20T01:10:17;41.60;;;21.10;;
23242;SDS011;11790;49.578;11.214;2022-11-20T01:15:18;43.08;;;20.98;;
23242;SDS011;11790;49.578;11.214;2022-11-20T01:20:19;42.70;;;20.05;;
23242;SDS011;11790;49.578;11.214;2022-11-20T01:25:19;45.00;;;21.63;;
23242;SDS011;11790;49.578;11.214;2022-11-20T01:30:19;43.85;;;20.50;;
23242;SDS011;11790;49.578;11.214;2022-11-20T01:35:19;43.58;;;22.08;;
23242;SDS011;11790;49.578;11.214;2022-11-20T01:40:20;42.20;;;20.58;;
23242;SDS011;11790;49.578;11.214;2022-11-20T01:50:38;43.00;;;21.10;;
23242;SDS011;11790;49.578;11.214;2022-11-20T01:55:44;47.33;;;21.15;;
23242;SDS011;11790;49.578;11.214;2022-11-20T02:00:46;43.22;;;21.42;;
23242;SDS011;11790;49.578;11.214;2022-11-20T02:11:05;40.15;;;20.65;;
23242;SDS011;11790;49.578;11.214;2022-11-20T02:16:05;43.53;;;20.70;;
23242;SDS011;11790;49.578;11.214;2022-11-20T02:26:28;45.33;;;21.00;;
23242;SDS011;11790;49.578;11.214;2022-11-20T02:31:35;45.50;;;20.42;;
23242;SDS011;11790;49.578;11.214;2022-11-20T02:36:36;44.33;;;22.27;;
23242;SDS011;11790;49.578;11.214;2022-11-20T02:41:38;41.03;;;20.70;;
23242;SDS011;11790;49.578;11.214;2022-11-20T02:46:39;48.58;;;22.52;;
23242;SDS011;11790;49.578;11.214;2022-11-20T02:51:39;45.22;;;21.67;;
23242;SDS011;11790;49.578;11.214;2022-11-20T02:56:39;41.95;;;20.55;;
23242;SDS011;11790;49.578;11.214;2022-11-20T03:01:39;44.90;;;21.65;;
23242;SDS011;11790;49.578;11.214;2022-11-20T03:06:40;41.47;;;19.55;;
23242;SDS011;11790;49.578;11.214;2022-11-20T03:11:40;41.05;;;20.58;;
23242;SDS011;11790;49.578;11.214;2022-11-20T03:16:40;45.72;;;22.05;;
23242;SDS011;11790;49.578;11.214;2022-11-20T03:21:40;42.87;;;21.57;;
23242;SDS011;11790;49.578;11.214;2022-11-20T03:26:41;43.40;;;20.55;;
23242;SDS011;11790;49.578;11.214;2022-11-20T03:31:41;44.75;;;22.08;;
23242;SDS011;11790;49.578;11.214;2022-11-20T03:36:42;41.93;;;21.30;;
23242;SDS011;11790;49.578;11.214;2022-11-20T03:41:42;48.85;;;22.60;;
23242;SDS011;11790;49.578;11.214;2022-11-20T03:46:43;45.58;;;21.35;;
23242;SDS011;11790;49.578;11.214;2022-11-20T03:51:43;49.25;;;22.77;;
23242;SDS011;11790;49.578;11.214;2022-11-20T03:56:43;50.22;;;23.88;;
23242;SDS011;11790;49.578;11.214;2022-11-20T04:01:44;52.13;;;23.33;;
23242;SDS011;11790;49.578;11.214;2022-11-20T04:06:44;45.53;;;21.92;;
23242;SDS011;11790;49.578;11.214;2022-11-20T04:11:44;46.40;;;23.30;;
23242;SDS011;11790;49.578;11.214;2022-11-20T04:16:44;45.80;;;22.60;;
23242;SDS011;11790;49.578;11.214;2022-11-20T04:21:45;47.63;;;22.37;;
23242;SDS011;11790;49.578;11.214;2022-11-20T04:26:45;48.97;;;24.10;;
23242;SDS011;11790;49.578;11.214;2022-11-20T04:31:45;47.92;;;23.20;;
23242;SDS011;11790;49.578;11.214;2022-11-20T04:36:45;52.95;;;24.45;;
23242;SDS011;11790;49.578;11.214;2022-11-20T04:41:46;50.20;;;23.55;;
23242;SDS011;11790;49.578;11.214;2022-11-20T04:46:46;48.08;;;22.90;;
23242;SDS011;11790;49.578;11.214;2022-11-20T04:51:46;53.42;;;23.50;;
23242;SDS011;11790;49.578;11.214;2022-11-20T04:56:49;49.25;;;22.98;;
23242;SDS011;11790;49.578;11.214;2022-11-20T05:01:50;46.55;;;21.15;;
23242;SDS011;11790;49.578;11.214;2022-11-20T05:06:50;49.55;;;23.17;;
23242;SDS011;11790;49.578;11.214;2022-11-20T05:11:50;46.97;;;22.73;;
23242;SDS011;11790;49.578;11.214;2022-11-20T05:16:50;51.08;;;22.33;;
23242;SDS011;11790;49.578;11.214;2022-11-20T05:21:51;50.60;;;22.88;;
23242;SDS011;11790;49.578;11.214;2022-11-20T05:26:51;43.80;;;21.90;;
23242;SDS011;11790;49.578;11.214;2022-11-20T05:31:51;46.60;;;21.60;;
23242;SDS011;11790;49.578;11.214;2022-11-20T05:36:51;49.28;;;23.15;;
23242;SDS011;11790;49.578;11.214;2022-11-20T05:41:52;47.35;;;21.85;;
23242;SDS011;11790;49.578;11.214;2022-11-20T05:47:12;43.58;;;21.45;;
23242;SDS011;11790;49.578;11.214;2022-11-20T05:52:12;49.38;;;22.88;;
23242;SDS011;11790;49.578;11.214;2022-11-20T05:57:12;51.33;;;22.40;;
23242;SDS011;11790;49.578;11.214;2022-11-20T06:02:12;45.13;;;21.52;;
23242;SDS011;11790;49.578;11.214;2022-11-20T06:07:13;50.60;;;22.40;;
23242;SDS011;11790;49.578;11.214;2022-11-20T06:12:13;45.78;;;21.50;;
23242;SDS011;11790;49.578;11.214;2022-11-20T06:17:13;50.60;;;22.87;;
23242;SDS011;11790;49.578;11.214;2022-11-20T06:22:14;47.88;;;21.88;;
23242;SDS011;11790;49.578;11.214;2022-11-20T06:27:15;52.88;;;21.75;;
23242;SDS011;11790;49.578;11.214;2022-11-20T06:32:15;47.20;;;21.85;;
23242;SDS011;11790;49.578;11.214;2022-11-20T06:37:15;46.25;;;21.73;;
23242;SDS011;11790;49.578;11.214;2022-11-20T06:42:16;47.00;;;21.50;;
23242;SDS011;11790;49.578;11.214;2022-11-20T06:47:16;40.10;;;19.83;;
23242;SDS011;11790;49.578;11.214;2022-11-20T06:52:16;50.25;;;23.58;;
23242;SDS011;11790;49.578;11.214;2022-11-20T06:57:16;49.60;;;21.55;;
23242;SDS011;11790;49.578;11.214;2022-11-20T07:02:17;45.33;;;21.85;;
23242;SDS011;11790;49.578;11.214;2022-11-20T07:07:17;46.03;;;21.25;;
23242;SDS011;11790;49.578;11.214;2022-11-20T07:12:17;40.75;;;19.65;;
23242;SDS011;11790;49.578;11.214;2022-11-20T07:17:17;37.88;;;18.17;;
23242;SDS011;11790;49.578;11.214;2022-11-20T07:22:18;41.75;;;20.00;;
23242;SDS011;11790;49.578;11.214;2022-11-20T07:27:18;46.78;;;21.00;;
23242;SDS011;11790;49.578;11.214;2022-11-20T07:32:18;44.40;;;20.15;;
23242;SDS011;11790;49.578;11.214;2022-11-20T07:37:18;43.95;;;19.75;;
23242;SDS011;11790;49.578;11.214;2022-11-20T07:42:19;44.65;;;19.92;;
23242;SDS011;11790;49.578;11.214;2022-11-20T07:47:19;46.25;;;22.23;;
23242;SDS011;11790;49.578;11.214;2022-11-20T07:52:19;42.35;;;20.80;;
23242;SDS011;11790;49.578;11.214;2022-11-20T07:57:19;45.20;;;21.95;;
23242;SDS011;11790;49.578;11.214;2022-11-20T08:02:20;41.60;;;18.93;;
23242;SDS011;11790;49.578;11.214;2022-11-20T08:07:20;39.15;;;18.63;;
23242;SDS011;11790;49.578;11.214;2022-11-20T08:12:20;47.78;;;20.27;;
23242;SDS011;11790;49.578;11.214;2022-11-20T08:17:39;45.97;;;21.33;;
23242;SDS011;11790;49.578;11.214;2022-11-20T08:22:39;39.20;;;18.80;;
23242;SDS011;11790;49.578;11.214;2022-11-20T08:27:39;43.50;;;20.00;;
23242;SDS011;11790;49.578;11.214;2022-11-20T08:32:40;40.13;;;18.67;;
23242;SDS011;11790;49.578;11.214;2022-11-20T08:37:40;45.03;;;21.13;;
23242;SDS011;11790;49.578;11.214;2022-11-20T08:42:48;49.97;;;20.75;;
23242;SDS011;11790;49.578;11.214;2022-11-20T08:47:48;55.42;;;24.75;;
23242;SDS011;11790;49.578;11.214;2022-11-20T08:52:48;46.03;;;22.27;;
23242;SDS011;11790;49.578;11.214;2022-11-20T08:57:49;47.33;;;22.23;;
23242;SDS011;11790;49.578;11.214;2022-11-20T09:02:49;36.33;;;18.27;;
23242;SDS011;11790;49.578;11.214;2022-11-20T09:07:49;33.17;;;18.38;;
23242;SDS011;11790;49.578;11.214;2022-11-20T09:12:49;30.35;;;15.63;;
23242;SDS011;11790;49.578;11.214;2022-11-20T09:17:55;30.55;;;16.00;;
23242;SDS011;11790;49.578;11.214;2022-11-20T09:22:55;27.95;;;15.25;;
23242;SDS011;11790;49.578;11.214;2022-11-20T09:27:56;55.15;;;28.60;;
23242;SDS011;11790;49.578;11.214;2022-11-20T09:32:57;48.45;;;25.35;;
23242;SDS011;11790;49.578;11.214;2022-11-20T09:37:57;40.50;;;22.10;;
23242;SDS011;11790;49.578;11.214;2022-11-20T09:48:04;38.28;;;18.58;;
23242;SDS011;11790;49.578;11.214;2022-11-20T09:58:27;51.00;;;22.98;;
23242;SDS011;11790;49.578;11.214;2022-11-20T10:03:36;37.95;;;18.60;;
23242;SDS011;11790;49.578;11.214;2022-11-20T10:08:41;40.30;;;20.73;;
23242;SDS011;11790;49.578;11.214;2022-11-20T10:19:02;38.03;;;19.50;;
23242;SDS011;11790;49.578;11.214;2022-11-20T10:29:18;42.97;;;17.90;;
23242;SDS011;11790;49.578;11.214;2022-11-20T10:34:33;43.78;;;18.17;;
23242;SDS011;11790;49.578;11.214;2022-11-20T10:44:34;40.58;;;20.90;;
23242;SDS011;11790;49.578;11.214;2022-11-20T10:49:55;33.90;;;17.15;;
23242;SDS011;11790;49.578;11.214;2022-11-20T10:54:58;38.10;;;19.48;;
23242;SDS011;11790;49.578;11.214;2022-11-20T11:00:07;43.83;;;23.55;;
23242;SDS011;11790;49.578;11.214;2022-11-20T11:15:39;41.28;;;20.20;;
23242;SDS011;11790;49.578;11.214;2022-11-20T11:20:40;32.90;;;16.73;;
23242;SDS011;11790;49.578;11.214;2022-11-20T11:25:56;37.03;;;16.80;;
23242;SDS011;11790;49.578;11.214;2022-11-20T11:30:56;29.55;;;16.83;;
23242;SDS011;11790;49.578;11.214;2022-11-20T11:36:00;34.03;;;16.97;;
23242;SDS011;11790;49.578;11.214;2022-11-20T11:41:01;37.28;;;19.65;;
23242;SDS011;11790;49.578;11.214;2022-11-20T11:46:02;34.17;;;18.42;;
23242;SDS011;11790;49.578;11.214;2022-11-20T11:51:07;34.35;;;18.60;;
23242;SDS011;11790;49.578;11.214;2022-11-20T11:56:08;38.20;;;20.13;;
23242;SDS011;11790;49.578;11.214;2022-11-20T12:06:29;57.00;;;30.65;;
23242;SDS011;11790;49.578;11.214;2022-11-20T12:11:38;36.85;;;21.35;;
23242;SDS011;11790;49.578;11.214;2022-11-20T12:16:41;33.10;;;18.15;;
23242;SDS011;11790;49.578;11.214;2022-11-20T12:42:47;20.27;;;11.40;;
23242;SDS011;11790;49.578;11.214;2022-11-20T12:53:56;33.13;;;14.07;;
23242;SDS011;11790;49.578;11.214;2022-11-20T12:59:16;33.40;;;13.52;;
23242;SDS011;11790;49.578;11.214;2022-11-20T13:09:31;21.95;;;10.75;;
23242;SDS011;11790;49.578;11.214;2022-11-20T13:14:42;14.63;;;9.15;;
23242;SDS011;11790;49.578;11.214;2022-11-20T13:20:05;20.52;;;10.60;;
23242;SDS011;11790;49.578;11.214;2022-11-20T13:25:08;19.25;;;11.25;;
23242;SDS011;11790;49.578;11.214;2022-11-20T13:30:14;18.50;;;10.27;;
23242;SDS011;11790;49.578;11.214;2022-11-20T13:40:52;20.10;;;11.35;;
23242;SDS011;11790;49.578;11.214;2022-11-20T13:45:59;20.05;;;10.90;;
23242;SDS011;11790;49.578;11.214;2022-11-20T13:51:21;20.40;;;12.10;;
23242;SDS011;11790;49.578;11.214;2022-11-20T14:01:32;22.70;;;12.40;;
23242;SDS011;11790;49.578;11.214;2022-11-20T14:06:33;23.52;;;12.52;;
23242;SDS011;11790;49.578;11.214;2022-11-20T14:11:34;23.50;;;13.43;;
23242;SDS011;11790;49.578;11.214;2022-11-20T14:16:36;25.90;;;15.15;;
23242;SDS011;11790;49.578;11.214;2022-11-20T14:21:36;24.75;;;13.15;;
23242;SDS011;11790;49.578;11.214;2022-11-20T14:26:37;22.40;;;11.98;;
23242;SDS011;11790;49.578;11.214;2022-11-20T14:31:38;20.23;;;11.52;;
23242;SDS011;11790;49.578;11.214;2022-11-20T14:36:38;21.40;;;11.52;;
23242;SDS011;11790;49.578;11.214;2022-11-20T14:41:38;21.27;;;12.10;;
23242;SDS011;11790;49.578;11.214;2022-11-20T14:46:38;22.92;;;12.00;;
23242;SDS011;11790;49.578;11.214;2022-11-20T14:51:39;19.60;;;11.73;;
23242;SDS011;11790;49.578;11.214;2022-11-20T15:06:57;27.42;;;14.65;;
23242;SDS011;11790;49.578;11.214;2022-11-20T15:11:58;24.17;;;14.50;;
23242;SDS011;11790;49.578;11.214;2022-11-20T15:17:00;27.70;;;14.85;;
23242;SDS011;11790;49.578;11.214;2022-11-20T15:22:00;31.47;;;15.63;;
23242;SDS011;11790;49.578;11.214;2022-11-20T15:27:00;33.72;;;15.00;;
23242;SDS011;11790;49.578;11.214;2022-11-20T15:32:01;32.05;;;16.67;;
23242;SDS011;11790;49.578;11.214;2022-11-20T15:37:02;29.20;;;16.40;;
23242;SDS011;11790;49.578;11.214;2022-11-20T15:42:02;36.25;;;18.30;;
23242;SDS011;11790;49.578;11.214;2022-11-20T15:47:02;31.50;;;16.73;;
23242;SDS011;11790;49.578;11.214;2022-11-20T15:52:02;29.98;;;16.08;;
23242;SDS011;11790;49.578;11.214;2022-11-20T15:57:03;67.28;;;41.95;;
23242;SDS011;11790;49.578;11.214;2022-11-20T16:02:07;30.33;;;17.60;;
23242;SDS011;11790;49.578;11.214;2022-11-20T16:07:08;29.95;;;16.40;;
23242;SDS011;11790;49.578;11.214;2022-11-20T16:12:09;36.50;;;18.90;;
23242;SDS011;11790;49.578;11.214;2022-11-20T16:17:29;34.42;;;18.83;;
23242;SDS011;11790;49.578;11.214;2022-11-20T16:22:42;50.33;;;28.23;;
23242;SDS011;11790;49.578;11.214;2022-11-20T16:27:42;42.92;;;24.92;;
23242;SDS011;11790;49.578;11.214;2022-11-20T16:32:42;48.70;;;27.63;;
23242;SDS011;11790;49.578;11.214;2022-11-20T16:37:43;43.78;;;24.55;;
23242;SDS011;11790;49.578;11.214;2022-11-20T16:42:43;47.63;;;28.35;;
23242;SDS011;11790;49.578;11.214;2022-11-20T16:47:43;41.50;;;23.48;;
23242;SDS011;11790;49.578;11.214;2022-11-20T16:52:45;38.37;;;22.17;;
23242;SDS011;11790;49.578;11.214;2022-11-20T16:57:45;37.88;;;20.90;;
23242;SDS011;11790;49.578;11.214;2022-11-20T17:02:45;37.13;;;21.02;;
23242;SDS011;11790;49.578;11.214;2022-11-20T17:07:45;35.38;;;20.15;;
23242;SDS011;11790;49.578;11.214;2022-11-20T17:12:45;35.92;;;20.45;;
23242;SDS011;11790;49.578;11.214;2022-11-20T17:17:46;39.88;;;22.33;;
23242;SDS011;11790;49.578;11.214;2022-11-20T17:22:59;40.13;;;23.67;;
23242;SDS011;11790;49.578;11.214;2022-11-20T17:27:59;43.88;;;24.70;;
23242;SDS011;11790;49.578;11.214;2022-11-20T17:32:59;54.15;;;30.70;;
23242;SDS011;11790;49.578;11.214;2022-11-20T17:37:59;50.80;;;26.87;;
23242;SDS011;11790;49.578;11.214;2022-11-20T17:43:05;34.92;;;21.05;;
23242;SDS011;11790;49.578;11.214;2022-11-20T17:48:06;43.40;;;21.27;;
23242;SDS011;11790;49.578;11.214;2022-11-20T17:53:06;43.33;;;22.70;;
23242;SDS011;11790;49.578;11.214;2022-11-20T17:58:06;31.50;;;18.48;;
23242;SDS011;11790;49.578;11.214;2022-11-20T18:03:09;30.08;;;17.40;;
23242;SDS011;11790;49.578;11.214;2022-11-20T18:08:10;29.83;;;16.55;;
23242;SDS011;11790;49.578;11.214;2022-11-20T18:13:10;23.05;;;13.32;;
23242;SDS011;11790;49.578;11.214;2022-11-20T18:18:10;24.58;;;14.48;;
23242;SDS011;11790;49.578;11.214;2022-11-20T18:23:10;27.75;;;14.95;;
23242;SDS011;11790;49.578;11.214;2022-11-20T18:28:10;45.97;;;22.70;;
23242;SDS011;11790;49.578;11.214;2022-11-20T18:33:11;31.75;;;17.40;;
23242;SDS011;11790;49.578;11.214;2022-11-20T18:38:11;34.53;;;18.58;;
23242;SDS011;11790;49.578;11.214;2022-11-20T18:43:11;38.38;;;22.30;;
23242;SDS011;11790;49.578;11.214;2022-11-20T18:48:30;33.53;;;18.30;;
23242;SDS011;11790;49.578;11.214;2022-11-20T18:53:31;29.65;;;17.90;;
23242;SDS011;11790;49.578;11.214;2022-11-20T18:58:33;32.35;;;17.75;;
23242;SDS011;11790;49.578;11.214;2022-11-20T19:03:33;33.90;;;17.45;;
23242;SDS011;11790;49.578;11.214;2022-11-20T19:08:34;32.40;;;17.80;;
23242;SDS011;11790;49.578;11.214;2022-11-20T19:13:34;29.73;;;15.75;;
23242;SDS011;11790;49.578;11.214;2022-11-20T19:18:34;38.80;;;21.17;;
23242;SDS011;11790;49.578;11.214;2022-11-20T19:23:35;36.53;;;20.33;;
23242;SDS011;11790;49.578;11.214;2022-11-20T19:28:35;34.63;;;19.92;;
23242;SDS011;11790;49.578;11.214;2022-11-20T19:33:36;36.15;;;20.48;;
23242;SDS011;11790;49.578;11.214;2022-11-20T19:38:36;33.20;;;18.08;;
23242;SDS011;11790;49.578;11.214;2022-11-20T19:43:37;42.65;;;25.13;;
23242;SDS011;11790;49.578;11.214;2022-11-20T19:48:37;39.17;;;23.50;;
23242;SDS011;11790;49.578;11.214;2022-11-20T19:53:37;37.75;;;22.23;;
23242;SDS011;11790;49.578;11.214;2022-11-20T19:58:38;37.58;;;23.20;;
23242;SDS011;11790;49.578;11.214;2022-11-20T20:03:38;31.55;;;18.75;;
23242;SDS011;11790;49.578;11.214;2022-11-20T20:08:39;43.03;;;23.63;;
23242;SDS011;11790;49.578;11.214;2022-11-20T20:13:39;36.93;;;21.70;;
23242;SDS011;11790;49.578;11.214;2022-11-20T20:18:39;31.00;;;19.38;;
23242;SDS011;11790;49.578;11.214;2022-11-20T20:23:40;33.83;;;18.33;;
23242;SDS011;11790;49.578;11.214;2022-11-20T20:28:41;30.55;;;17.13;;
23242;SDS011;11790;49.578;11.214;2022-11-20T20:33:41;30.08;;;15.18;;
23242;SDS011;11790;49.578;11.214;2022-11-20T20:38:41;28.23;;;17.10;;
23242;SDS011;11790;49.578;11.214;2022-11-20T20:43:44;23.60;;;13.80;;
23242;SDS011;11790;49.578;11.214;2022-11-20T20:49:03;22.65;;;14.15;;
23242;SDS011;11790;49.578;11.214;2022-11-20T20:54:03;23.10;;;14.15;;
23242;SDS011;11790;49.578;11.214;2022-11-20T20:59:03;19.63;;;11.17;;
23242;SDS011;11790;49.578;11.214;2022-11-20T21:04:04;17.35;;;10.98;;
23242;SDS011;11790;49.578;11.214;2022-11-20T21:09:04;18.40;;;11.98;;
23242;SDS011;11790;49.578;11.214;2022-11-20T21:14:04;15.70;;;9.40;;
23242;SDS011;11790;49.578;11.214;2022-11-20T21:19:05;12.90;;;8.40;;
23242;SDS011;11790;49.578;11.214;2022-11-20T21:24:06;11.40;;;7.90;;
23242;SDS011;11790;49.578;11.214;2022-11-20T21:29:06;10.77;;;7.10;;
23242;SDS011;11790;49.578;11.214;2022-11-20T21:34:08;18.45;;;8.10;;
23242;SDS011;11790;49.578;11.214;2022-11-20T21:39:10;10.18;;;6.63;;
23242;SDS011;11790;49.578;11.214;2022-11-20T21:44:12;7.70;;;5.55;;
23242;SDS011;11790;49.578;11.214;2022-11-20T21:49:12;9.15;;;5.85;;
23242;SDS011;11790;49.578;11.214;2022-11-20T21:54:14;9.52;;;5.10;;
23242;SDS011;11790;49.578;11.214;2022-11-20T21:59:16;6.28;;;4.40;;
23242;SDS011;11790;49.578;11.214;2022-11-20T22:04:16;8.50;;;4.15;;
23242;SDS011;11790;49.578;11.214;2022-11-20T22:09:17;6.90;;;3.73;;
23242;SDS011;11790;49.578;11.214;2022-11-20T22:14:17;12.50;;;4.25;;
23242;SDS011;11790;49.578;11.214;2022-11-20T22:19:20;5.68;;;3.92;;
23242;SDS011;11790;49.578;11.214;2022-11-20T22:24:21;7.32;;;3.72;;
23242;SDS011;11790;49.578;11.214;2022-11-20T22:29:21;5.10;;;3.50;;
23242;SDS011;11790;49.578;11.214;2022-11-20T22:34:21;4.60;;;3.20;;
23242;SDS011;11790;49.578;11.214;2022-11-20T22:39:22;4.80;;;2.83;;
23242;SDS011;11790;49.578;11.214;2022-11-20T22:44:22;4.30;;;2.85;;
23242;SDS011;11790;49.578;11.214;2022-11-20T22:49:22;4.15;;;2.83;;
23242;SDS011;11790;49.578;11.214;2022-11-20T22:54:22;4.00;;;2.78;;
23242;SDS011;11790;49.578;11.214;2022-11-20T22:59:22;5.75;;;2.72;;
23242;SDS011;11790;49.578;11.214;2022-11-20T23:04:23;4.78;;;2.92;;
23242;SDS011;11790;49.578;11.214;2022-11-20T23:09:23;7.15;;;3.17;;
23242;SDS011;11790;49.578;11.214;2022-11-20T23:14:23;4.80;;;2.83;;
23242;SDS011;11790;49.578;11.214;2022-11-20T23:19:23;3.58;;;2.50;;
23242;SDS011;11790;49.578;11.214;2022-11-20T23:24:24;5.22;;;3.38;;
23242;SDS011;11790;49.578;11.214;2022-11-20T23:29:24;4.22;;;2.90;;
23242;SDS011;11790;49.578;11.214;2022-11-20T23:34:24;4.18;;;2.60;;
23242;SDS011;11790;49.578;11.214;2022-11-20T23:39:24;4.22;;;2.63;;
23242;SDS011;11790;49.578;11.214;2022-11-20T23:44:25;5.90;;;2.80;;
23242;SDS011;11790;49.578;11.214;2022-11-20T23:49:25;5.18;;;3.05;;
23242;SDS011;11790;49.578;11.214;2022-11-20T23:54:26;6.43;;;3.15;;
23242;SDS011;11790;49.578;11.214;2022-11-20T23:59:26;4.47;;;2.90;;
